sensor_id;sensor_type;location;lat;lon;timestamp;pressure;altitude;pressure_sealevel;temperature;humidity
49779;BME280;36217;60.232;24.776;2022-12-01T00:00:53;103430.45;;;1.89;100.00
49779;BME280;36217;60.232;24.776;2022-12-01T00:03:21;103431.41;;;1.70;100.00
49779;BME280;36217;60.232;24.776;2022-12-01T00:05:57;103432.17;;;1.65;100.00
49779;BME280;36217;60.232;24.776;2022-12-01T00:08:24;103429.86;;;1.95;100.00
49779;BME280;36217;60.232;24.776;2022-12-01T00:10:52;103428.42;;;1.70;100.00
49779;BME280;36217;60.232;24.776;2022-12-01T00:13:18;103426.04;;;1.71;100.00
49779;BME280;36217;60.232;24.776;2022-12-01T00:15:45;103419.39;;;1.91;100.00
49779;BME280;36217;60.232;24.776;2022-12-01T00:18:12;103417.49;;;1.95;100.00
49779;BME280;36217;60.232;24.776;2022-12-01T00:20:39;103418.25;;;1.98;100.00
49779;BME280;36217;60.232;24.776;2022-12-01T00:23:06;103416.91;;;1.96;100.00
49779;BME280;36217;60.232;24.776;2022-12-01T00:25:33;103418.61;;;1.99;100.00
49779;BME280;36217;60.232;24.776;2022-12-01T00:27:59;103419.07;;;2.00;100.00
49779;BME280;36217;60.232;24.776;2022-12-01T00:30:27;103420.12;;;2.02;100.00
49779;BME280;36217;60.232;24.776;2022-12-01T00:32:54;103418.73;;;2.02;100.00
49779;BME280;36217;60.232;24.776;2022-12-01T00:35:20;103424.93;;;1.84;100.00
49779;BME280;36217;60.232;24.776;2022-12-01T00:37:47;103428.51;;;2.12;100.00
49779;BME280;36217;60.232;24.776;2022-12-01T00:40:14;103433.02;;;2.11;100.00
49779;BME280;36217;60.232;24.776;2022-12-01T00:42:41;103432.94;;;1.88;100.00
49779;BME280;36217;60.232;24.776;2022-12-01T00:45:09;103433.20;;;2.14;100.00
49779;BME280;36217;60.232;24.776;2022-12-01T00:47:36;103433.36;;;1.65;100.00
49779;BME280;36217;60.232;24.776;2022-12-01T00:50:04;103431.84;;;2.17;100.00
49779;BME280;36217;60.232;24.776;2022-12-01T00:52:31;103434.04;;;2.11;100.00
49779;BME280;36217;60.232;24.776;2022-12-01T00:54:57;103432.33;;;2.09;100.00
49779;BME280;36217;60.232;24.776;2022-12-01T00:57:24;103429.08;;;2.09;100.00
49779;BME280;36217;60.232;24.776;2022-12-01T00:59:51;103429.47;;;1.91;100.00
49779;BME280;36217;60.232;24.776;2022-12-01T01:02:18;103427.52;;;2.11;100.00
49779;BME280;36217;60.232;24.776;2022-12-01T01:04:45;103421.37;;;2.12;100.00
49779;BME280;36217;60.232;24.776;2022-12-01T01:07:12;103420.84;;;2.12;100.00
49779;BME280;36217;60.232;24.776;2022-12-01T01:09:39;103421.01;;;2.12;100.00
49779;BME280;36217;60.232;24.776;2022-12-01T01:12:06;103421.49;;;2.15;100.00
49779;BME280;36217;60.232;24.776;2022-12-01T01:14:33;103420.69;;;2.19;100.00
49779;BME280;36217;60.232;24.776;2022-12-01T01:17:00;103420.34;;;1.74;100.00
49779;BME280;36217;60.232;24.776;2022-12-01T01:19:27;103417.98;;;2.20;100.00
49779;BME280;36217;60.232;24.776;2022-12-01T01:21:55;103420.44;;;2.16;100.00
49779;BME280;36217;60.232;24.776;2022-12-01T01:24:21;103420.30;;;1.98;100.00
49779;BME280;36217;60.232;24.776;2022-12-01T01:26:48;103417.62;;;2.22;100.00
49779;BME280;36217;60.232;24.776;2022-12-01T01:29:15;103416.45;;;2.21;100.00
49779;BME280;36217;60.232;24.776;2022-12-01T01:31:42;103416.06;;;2.16;100.00
49779;BME280;36217;60.232;24.776;2022-12-01T01:34:09;103419.58;;;2.17;100.00
49779;BME280;36217;60.232;24.776;2022-12-01T01:36:35;103424.79;;;1.89;100.00
49779;BME280;36217;60.232;24.776;2022-12-01T01:39:03;103425.85;;;1.87;100.00
49779;BME280;36217;60.232;24.776;2022-12-01T01:41:30;103424.44;;;2.12;100.00
49779;BME280;36217;60.232;24.776;2022-12-01T01:43:58;103421.03;;;2.18;100.00
49779;BME280;36217;60.232;24.776;2022-12-01T01:46:26;103418.92;;;1.95;100.00
49779;BME280;36217;60.232;24.776;2022-12-01T01:48:56;103418.44;;;2.13;100.00
49779;BME280;36217;60.232;24.776;2022-12-01T01:51:27;103418.85;;;2.16;100.00
49779;BME280;36217;60.232;24.776;2022-12-01T01:53:59;103418.35;;;1.97;100.00
49779;BME280;36217;60.232;24.776;2022-12-01T01:56:27;103417.82;;;1.96;100.00
49779;BME280;36217;60.232;24.776;2022-12-01T01:58:55;103416.47;;;2.17;100.00
49779;BME280;36217;60.232;24.776;2022-12-01T02:01:22;103415.71;;;2.16;100.00
49779;BME280;36217;60.232;24.776;2022-12-01T02:03:51;103418.47;;;2.17;100.00
49779;BME280;36217;60.232;24.776;2022-12-01T02:06:19;103419.12;;;1.93;100.00
49779;BME280;36217;60.232;24.776;2022-12-01T02:08:46;103418.76;;;2.19;100.00
49779;BME280;36217;60.232;24.776;2022-12-01T02:11:34;103417.53;;;2.18;100.00
49779;BME280;36217;60.232;24.776;2022-12-01T02:14:12;103414.83;;;2.00;100.00
49779;BME280;36217;60.232;24.776;2022-12-01T02:16:48;103409.77;;;2.19;100.00
49779;BME280;36217;60.232;24.776;2022-12-01T02:19:40;103410.75;;;2.20;100.00
49779;BME280;36217;60.232;24.776;2022-12-01T02:22:17;103413.37;;;1.96;100.00
49779;BME280;36217;60.232;24.776;2022-12-01T02:25:02;103418.01;;;2.17;100.00
49779;BME280;36217;60.232;24.776;2022-12-01T02:27:48;103419.28;;;2.15;100.00
49779;BME280;36217;60.232;24.776;2022-12-01T02:30:28;103421.18;;;2.12;100.00
49779;BME280;36217;60.232;24.776;2022-12-01T02:33:03;103424.45;;;2.10;100.00
49779;BME280;36217;60.232;24.776;2022-12-01T02:35:36;103426.36;;;2.17;100.00
49779;BME280;36217;60.232;24.776;2022-12-01T02:38:12;103426.31;;;1.98;100.00
49779;BME280;36217;60.232;24.776;2022-12-01T02:40:43;103423.99;;;2.00;100.00
49779;BME280;36217;60.232;24.776;2022-12-01T02:43:18;103422.11;;;2.04;100.00
49779;BME280;36217;60.232;24.776;2022-12-01T02:45:49;103422.35;;;1.99;100.00
49779;BME280;36217;60.232;24.776;2022-12-01T02:48:21;103422.54;;;2.03;100.00
49779;BME280;36217;60.232;24.776;2022-12-01T02:50:51;103422.47;;;2.17;100.00
49779;BME280;36217;60.232;24.776;2022-12-01T02:53:19;103419.46;;;2.13;100.00
49779;BME280;36217;60.232;24.776;2022-12-01T02:55:48;103416.95;;;2.16;100.00
49779;BME280;36217;60.232;24.776;2022-12-01T02:58:15;103415.75;;;1.72;100.00
49779;BME280;36217;60.232;24.776;2022-12-01T03:00:50;103416.12;;;2.25;100.00
49779;BME280;36217;60.232;24.776;2022-12-01T03:03:32;103414.60;;;1.78;100.00
49779;BME280;36217;60.232;24.776;2022-12-01T03:06:08;103413.81;;;2.27;100.00
49779;BME280;36217;60.232;24.776;2022-12-01T03:08:44;103409.88;;;2.05;100.00
49779;BME280;36217;60.232;24.776;2022-12-01T03:11:17;103402.99;;;2.28;100.00
49779;BME280;36217;60.232;24.776;2022-12-01T03:13:56;103406.44;;;1.99;100.00
49779;BME280;36217;60.232;24.776;2022-12-01T03:16:29;103410.61;;;2.21;100.00
49779;BME280;36217;60.232;24.776;2022-12-01T03:19:02;103414.34;;;2.11;100.00
49779;BME280;36217;60.232;24.776;2022-12-01T03:21:35;103417.12;;;2.12;100.00
49779;BME280;36217;60.232;24.776;2022-12-01T03:24:08;103418.80;;;1.91;100.00
49779;BME280;36217;60.232;24.776;2022-12-01T03:26:36;103416.48;;;2.04;100.00
49779;BME280;36217;60.232;24.776;2022-12-01T03:29:08;103416.09;;;1.84;100.00
49779;BME280;36217;60.232;24.776;2022-12-01T03:31:40;103422.55;;;2.15;100.00
49779;BME280;36217;60.232;24.776;2022-12-01T03:34:12;103425.80;;;2.08;100.00
49779;BME280;36217;60.232;24.776;2022-12-01T03:36:45;103430.59;;;2.06;100.00
49779;BME280;36217;60.232;24.776;2022-12-01T03:39:16;103430.90;;;2.03;100.00
49779;BME280;36217;60.232;24.776;2022-12-01T03:41:49;103426.17;;;2.10;100.00
49779;BME280;36217;60.232;24.776;2022-12-01T03:44:20;103420.74;;;2.12;100.00
49779;BME280;36217;60.232;24.776;2022-12-01T03:46:51;103419.31;;;2.10;100.00
49779;BME280;36217;60.232;24.776;2022-12-01T03:49:20;103421.22;;;2.08;100.00
49779;BME280;36217;60.232;24.776;2022-12-01T03:51:55;103423.86;;;2.05;100.00
49779;BME280;36217;60.232;24.776;2022-12-01T03:54:30;103419.97;;;2.08;100.00
49779;BME280;36217;60.232;24.776;2022-12-01T03:57:05;103418.43;;;2.07;100.00
49779;BME280;36217;60.232;24.776;2022-12-01T03:59:34;103416.85;;;2.10;100.00
49779;BME280;36217;60.232;24.776;2022-12-01T04:02:04;103418.96;;;2.08;100.00
49779;BME280;36217;60.232;24.776;2022-12-01T04:04:31;103421.15;;;2.10;100.00
49779;BME280;36217;60.232;24.776;2022-12-01T04:06:58;103420.97;;;2.06;100.00
49779;BME280;36217;60.232;24.776;2022-12-01T04:09:25;103421.10;;;2.07;100.00
49779;BME280;36217;60.232;24.776;2022-12-01T04:11:51;103425.23;;;2.11;100.00
49779;BME280;36217;60.232;24.776;2022-12-01T04:14:18;103427.54;;;1.86;100.00
49779;BME280;36217;60.232;24.776;2022-12-01T04:16:45;103429.43;;;2.05;100.00
49779;BME280;36217;60.232;24.776;2022-12-01T04:19:12;103433.24;;;1.88;100.00
49779;BME280;36217;60.232;24.776;2022-12-01T04:21:39;103430.95;;;2.06;100.00
49779;BME280;36217;60.232;24.776;2022-12-01T04:24:07;103427.20;;;2.08;100.00
49779;BME280;36217;60.232;24.776;2022-12-01T04:26:36;103423.58;;;1.84;100.00
49779;BME280;36217;60.232;24.776;2022-12-01T04:29:04;103424.61;;;2.11;100.00
49779;BME280;36217;60.232;24.776;2022-12-01T04:31:31;103427.78;;;1.89;100.00
49779;BME280;36217;60.232;24.776;2022-12-01T04:33:58;103425.35;;;2.12;100.00
49779;BME280;36217;60.232;24.776;2022-12-01T04:36:28;103428.77;;;2.12;100.00
49779;BME280;36217;60.232;24.776;2022-12-01T04:38:55;103426.47;;;2.06;100.00
49779;BME280;36217;60.232;24.776;2022-12-01T04:41:23;103430.83;;;1.89;100.00
49779;BME280;36217;60.232;24.776;2022-12-01T04:43:51;103429.92;;;1.88;100.00
49779;BME280;36217;60.232;24.776;2022-12-01T04:46:19;103429.12;;;2.10;100.00
49779;BME280;36217;60.232;24.776;2022-12-01T04:48:46;103426.56;;;2.12;100.00
49779;BME280;36217;60.232;24.776;2022-12-01T04:51:13;103424.58;;;1.91;100.00
49779;BME280;36217;60.232;24.776;2022-12-01T04:53:40;103426.81;;;2.11;100.00
49779;BME280;36217;60.232;24.776;2022-12-01T04:56:07;103424.59;;;2.13;100.00
49779;BME280;36217;60.232;24.776;2022-12-01T04:58:36;103420.84;;;1.99;100.00
49779;BME280;36217;60.232;24.776;2022-12-01T05:01:05;103422.46;;;1.77;100.00
49779;BME280;36217;60.232;24.776;2022-12-01T05:03:35;103421.54;;;1.63;100.00
49779;BME280;36217;60.232;24.776;2022-12-01T05:06:02;103421.27;;;1.43;100.00
49779;BME280;36217;60.232;24.776;2022-12-01T05:08:29;103427.60;;;1.06;100.00
49779;BME280;36217;60.232;24.776;2022-12-01T05:10:56;103429.22;;;1.31;100.00
49779;BME280;36217;60.232;24.776;2022-12-01T05:13:24;103430.66;;;1.16;100.00
49779;BME280;36217;60.232;24.776;2022-12-01T05:15:50;103431.81;;;1.14;100.00
49779;BME280;36217;60.232;24.776;2022-12-01T05:18:17;103432.53;;;1.02;100.00
49779;BME280;36217;60.232;24.776;2022-12-01T05:20:44;103431.35;;;0.89;100.00
49779;BME280;36217;60.232;24.776;2022-12-01T05:23:10;103436.73;;;0.79;100.00
49779;BME280;36217;60.232;24.776;2022-12-01T05:25:37;103441.76;;;0.90;100.00
49779;BME280;36217;60.232;24.776;2022-12-01T05:28:04;103444.61;;;0.92;100.00
49779;BME280;36217;60.232;24.776;2022-12-01T05:30:31;103445.09;;;1.14;100.00
49779;BME280;36217;60.232;24.776;2022-12-01T05:32:59;103441.13;;;0.78;100.00
49779;BME280;36217;60.232;24.776;2022-12-01T05:35:26;103444.07;;;0.79;100.00
49779;BME280;36217;60.232;24.776;2022-12-01T05:37:53;103448.50;;;1.00;100.00
49779;BME280;36217;60.232;24.776;2022-12-01T05:40:20;103453.49;;;0.70;100.00
49779;BME280;36217;60.232;24.776;2022-12-01T05:42:47;103454.93;;;0.68;100.00
49779;BME280;36217;60.232;24.776;2022-12-01T05:45:15;103454.72;;;0.53;100.00
49779;BME280;36217;60.232;24.776;2022-12-01T05:47:42;103454.96;;;0.85;100.00
49779;BME280;36217;60.232;24.776;2022-12-01T05:50:09;103454.12;;;0.76;100.00
49779;BME280;36217;60.232;24.776;2022-12-01T05:52:36;103454.26;;;0.75;100.00
49779;BME280;36217;60.232;24.776;2022-12-01T05:55:04;103454.45;;;0.42;100.00
49779;BME280;36217;60.232;24.776;2022-12-01T05:57:32;103457.44;;;0.75;100.00
49779;BME280;36217;60.232;24.776;2022-12-01T05:59:59;103457.78;;;0.49;100.00
49779;BME280;36217;60.232;24.776;2022-12-01T06:02:26;103462.20;;;0.37;100.00
49779;BME280;36217;60.232;24.776;2022-12-01T06:04:53;103461.15;;;0.37;100.00
49779;BME280;36217;60.232;24.776;2022-12-01T06:07:20;103465.32;;;0.46;100.00
49779;BME280;36217;60.232;24.776;2022-12-01T06:09:47;103465.92;;;0.36;100.00
49779;BME280;36217;60.232;24.776;2022-12-01T06:12:15;103466.02;;;0.62;100.00
49779;BME280;36217;60.232;24.776;2022-12-01T06:14:42;103465.60;;;0.52;100.00
49779;BME280;36217;60.232;24.776;2022-12-01T06:17:09;103466.28;;;0.58;100.00
49779;BME280;36217;60.232;24.776;2022-12-01T06:19:36;103467.03;;;0.68;100.00
49779;BME280;36217;60.232;24.776;2022-12-01T06:22:03;103467.75;;;0.42;100.00
49779;BME280;36217;60.232;24.776;2022-12-01T06:24:30;103469.32;;;0.60;100.00
49779;BME280;36217;60.232;24.776;2022-12-01T06:26:58;103472.38;;;0.68;100.00
49779;BME280;36217;60.232;24.776;2022-12-01T06:29:24;103466.48;;;1.60;100.00
49779;BME280;36217;60.232;24.776;2022-12-01T06:31:51;103464.48;;;1.25;100.00
49779;BME280;36217;60.232;24.776;2022-12-01T06:34:19;103468.45;;;0.99;100.00
49779;BME280;36217;60.232;24.776;2022-12-01T06:36:45;103472.56;;;0.86;100.00
49779;BME280;36217;60.232;24.776;2022-12-01T06:39:13;103474.09;;;0.91;100.00
49779;BME280;36217;60.232;24.776;2022-12-01T06:41:40;103475.09;;;1.26;100.00
49779;BME280;36217;60.232;24.776;2022-12-01T06:44:08;103476.84;;;1.28;100.00
49779;BME280;36217;60.232;24.776;2022-12-01T06:46:35;103480.15;;;1.18;100.00
49779;BME280;36217;60.232;24.776;2022-12-01T06:49:02;103476.33;;;1.26;100.00
49779;BME280;36217;60.232;24.776;2022-12-01T06:51:29;103478.79;;;1.70;100.00
49779;BME280;36217;60.232;24.776;2022-12-01T06:53:56;103477.24;;;1.46;100.00
49779;BME280;36217;60.232;24.776;2022-12-01T06:56:23;103479.41;;;1.60;100.00
49779;BME280;36217;60.232;24.776;2022-12-01T06:58:50;103476.68;;;2.18;100.00
49779;BME280;36217;60.232;24.776;2022-12-01T07:01:18;103475.04;;;1.74;100.00
49779;BME280;36217;60.232;24.776;2022-12-01T07:03:46;103471.79;;;2.03;100.00
49779;BME280;36217;60.232;24.776;2022-12-01T07:06:14;103470.77;;;1.78;100.00
49779;BME280;36217;60.232;24.776;2022-12-01T07:08:42;103471.73;;;2.10;100.00
49779;BME280;36217;60.232;24.776;2022-12-01T07:11:11;103468.97;;;1.93;100.00
49779;BME280;36217;60.232;24.776;2022-12-01T07:13:39;103468.77;;;1.88;100.00
49779;BME280;36217;60.232;24.776;2022-12-01T07:16:07;103471.08;;;2.02;100.00
49779;BME280;36217;60.232;24.776;2022-12-01T07:18:36;103474.12;;;1.97;100.00
49779;BME280;36217;60.232;24.776;2022-12-01T07:21:05;103475.52;;;2.02;100.00
49779;BME280;36217;60.232;24.776;2022-12-01T07:23:32;103474.62;;;2.01;100.00
49779;BME280;36217;60.232;24.776;2022-12-01T07:26:00;103476.25;;;2.08;100.00
49779;BME280;36217;60.232;24.776;2022-12-01T07:28:27;103473.49;;;2.02;100.00
49779;BME280;36217;60.232;24.776;2022-12-01T07:31:00;103473.30;;;2.05;100.00
49779;BME280;36217;60.232;24.776;2022-12-01T07:33:27;103473.82;;;2.00;100.00
49779;BME280;36217;60.232;24.776;2022-12-01T07:35:54;103476.98;;;2.04;100.00
49779;BME280;36217;60.232;24.776;2022-12-01T07:38:21;103477.42;;;2.05;100.00
49779;BME280;36217;60.232;24.776;2022-12-01T07:40:48;103478.25;;;1.84;100.00
49779;BME280;36217;60.232;24.776;2022-12-01T07:43:14;103478.56;;;2.07;100.00
49779;BME280;36217;60.232;24.776;2022-12-01T07:45:42;103480.76;;;2.15;100.00
49779;BME280;36217;60.232;24.776;2022-12-01T07:48:09;103478.45;;;2.06;100.00
49779;BME280;36217;60.232;24.776;2022-12-01T07:50:36;103474.24;;;2.13;100.00
49779;BME280;36217;60.232;24.776;2022-12-01T07:53:03;103476.40;;;2.06;100.00
49779;BME280;36217;60.232;24.776;2022-12-01T07:55:30;103477.62;;;2.19;100.00
49779;BME280;36217;60.232;24.776;2022-12-01T07:57:58;103477.39;;;2.19;100.00
49779;BME280;36217;60.232;24.776;2022-12-01T08:00:25;103481.75;;;2.21;100.00
49779;BME280;36217;60.232;24.776;2022-12-01T08:02:52;103487.20;;;2.15;100.00
49779;BME280;36217;60.232;24.776;2022-12-01T08:05:19;103489.94;;;2.25;100.00
49779;BME280;36217;60.232;24.776;2022-12-01T08:07:46;103487.50;;;2.23;100.00
49779;BME280;36217;60.232;24.776;2022-12-01T08:10:13;103485.95;;;2.03;100.00
49779;BME280;36217;60.232;24.776;2022-12-01T08:12:41;103486.04;;;2.35;100.00
49779;BME280;36217;60.232;24.776;2022-12-01T08:15:08;103483.84;;;2.30;100.00
49779;BME280;36217;60.232;24.776;2022-12-01T08:17:36;103487.46;;;2.33;100.00
49779;BME280;36217;60.232;24.776;2022-12-01T08:20:04;103488.03;;;2.30;100.00
49779;BME280;36217;60.232;24.776;2022-12-01T08:22:31;103486.51;;;2.38;100.00
49779;BME280;36217;60.232;24.776;2022-12-01T08:24:58;103486.04;;;2.33;100.00
49779;BME280;36217;60.232;24.776;2022-12-01T08:27:25;103490.61;;;2.40;100.00
49779;BME280;36217;60.232;24.776;2022-12-01T08:29:52;103489.67;;;2.31;100.00
49779;BME280;36217;60.232;24.776;2022-12-01T08:32:19;103489.37;;;2.32;100.00
49779;BME280;36217;60.232;24.776;2022-12-01T08:34:46;103488.60;;;2.43;100.00
49779;BME280;36217;60.232;24.776;2022-12-01T08:37:13;103492.23;;;2.30;100.00
49779;BME280;36217;60.232;24.776;2022-12-01T08:39:40;103491.66;;;2.18;100.00
49779;BME280;36217;60.232;24.776;2022-12-01T08:42:07;103492.97;;;2.40;100.00
49779;BME280;36217;60.232;24.776;2022-12-01T08:44:34;103497.55;;;2.41;100.00
49779;BME280;36217;60.232;24.776;2022-12-01T08:47:01;103497.01;;;2.37;100.00
49779;BME280;36217;60.232;24.776;2022-12-01T08:49:27;103498.62;;;2.32;100.00
49779;BME280;36217;60.232;24.776;2022-12-01T08:51:54;103504.07;;;2.12;100.00
49779;BME280;36217;60.232;24.776;2022-12-01T08:54:21;103503.75;;;2.32;100.00
49779;BME280;36217;60.232;24.776;2022-12-01T08:56:48;103500.82;;;2.31;100.00
49779;BME280;36217;60.232;24.776;2022-12-01T08:59:15;103503.99;;;2.37;100.00
49779;BME280;36217;60.232;24.776;2022-12-01T09:01:42;103507.50;;;2.33;100.00
49779;BME280;36217;60.232;24.776;2022-12-01T09:04:09;103506.58;;;2.34;100.00
49779;BME280;36217;60.232;24.776;2022-12-01T09:06:38;103505.47;;;2.09;100.00
49779;BME280;36217;60.232;24.776;2022-12-01T09:09:06;103507.14;;;2.38;100.00
49779;BME280;36217;60.232;24.776;2022-12-01T09:11:33;103509.76;;;2.39;100.00
49779;BME280;36217;60.232;24.776;2022-12-01T09:14:00;103512.18;;;2.42;100.00
49779;BME280;36217;60.232;24.776;2022-12-01T09:16:27;103511.49;;;2.41;100.00
49779;BME280;36217;60.232;24.776;2022-12-01T09:18:55;103510.98;;;1.99;100.00
49779;BME280;36217;60.232;24.776;2022-12-01T09:21:23;103512.06;;;2.54;100.00
49779;BME280;36217;60.232;24.776;2022-12-01T09:23:51;103514.16;;;2.06;100.00
49779;BME280;36217;60.232;24.776;2022-12-01T09:26:19;103511.02;;;2.54;100.00
49779;BME280;36217;60.232;24.776;2022-12-01T09:28:47;103506.55;;;2.54;100.00
49779;BME280;36217;60.232;24.776;2022-12-01T09:31:15;103504.81;;;2.12;100.00
49779;BME280;36217;60.232;24.776;2022-12-01T09:33:43;103504.20;;;2.28;100.00
49779;BME280;36217;60.232;24.776;2022-12-01T09:36:10;103507.48;;;2.43;100.00
49779;BME280;36217;60.232;24.776;2022-12-01T09:38:37;103506.46;;;2.21;100.00
49779;BME280;36217;60.232;24.776;2022-12-01T09:41:06;103507.24;;;2.09;100.00
49779;BME280;36217;60.232;24.776;2022-12-01T09:43:39;103508.60;;;2.33;100.00
49779;BME280;36217;60.232;24.776;2022-12-01T09:46:12;103506.96;;;2.62;100.00
49779;BME280;36217;60.232;24.776;2022-12-01T09:48:42;103504.62;;;2.55;100.00
49779;BME280;36217;60.232;24.776;2022-12-01T09:51:12;103507.47;;;2.53;100.00
49779;BME280;36217;60.232;24.776;2022-12-01T09:53:41;103507.49;;;2.56;100.00
49779;BME280;36217;60.232;24.776;2022-12-01T09:56:19;103507.52;;;2.56;100.00
49779;BME280;36217;60.232;24.776;2022-12-01T09:58:49;103502.84;;;2.53;100.00
49779;BME280;36217;60.232;24.776;2022-12-01T10:01:19;103497.66;;;2.36;100.00
49779;BME280;36217;60.232;24.776;2022-12-01T10:03:49;103502.17;;;2.44;100.00
49779;BME280;36217;60.232;24.776;2022-12-01T10:06:22;103500.75;;;2.44;100.00
49779;BME280;36217;60.232;24.776;2022-12-01T10:09:13;103504.73;;;2.72;100.00
49779;BME280;36217;60.232;24.776;2022-12-01T10:11:43;103503.72;;;2.66;100.00
49779;BME280;36217;60.232;24.776;2022-12-01T10:14:14;103501.61;;;2.43;100.00
49779;BME280;36217;60.232;24.776;2022-12-01T10:16:45;103500.04;;;2.39;100.00
49779;BME280;36217;60.232;24.776;2022-12-01T10:19:20;103498.88;;;2.19;100.00
49779;BME280;36217;60.232;24.776;2022-12-01T10:22:01;103498.70;;;2.59;100.00
49779;BME280;36217;60.232;24.776;2022-12-01T10:24:41;103496.34;;;2.56;100.00
49779;BME280;36217;60.232;24.776;2022-12-01T10:27:21;103492.98;;;2.51;100.00
49779;BME280;36217;60.232;24.776;2022-12-01T10:29:59;103493.90;;;2.36;100.00
49779;BME280;36217;60.232;24.776;2022-12-01T10:32:34;103495.27;;;2.26;100.00
49779;BME280;36217;60.232;24.776;2022-12-01T10:35:04;103492.89;;;2.55;100.00
49779;BME280;36217;60.232;24.776;2022-12-01T10:37:31;103493.43;;;2.48;100.00
49779;BME280;36217;60.232;24.776;2022-12-01T10:39:58;103493.11;;;2.29;100.00
49779;BME280;36217;60.232;24.776;2022-12-01T10:42:28;103496.84;;;2.56;100.00
49779;BME280;36217;60.232;24.776;2022-12-01T10:44:59;103499.66;;;2.55;100.00
49779;BME280;36217;60.232;24.776;2022-12-01T10:47:27;103501.81;;;2.41;100.00
49779;BME280;36217;60.232;24.776;2022-12-01T10:49:54;103498.36;;;2.29;100.00
49779;BME280;36217;60.232;24.776;2022-12-01T10:52:39;103498.31;;;2.41;100.00
49779;BME280;36217;60.232;24.776;2022-12-01T10:55:25;103501.57;;;2.42;100.00
49779;BME280;36217;60.232;24.776;2022-12-01T10:57:54;103501.63;;;2.20;100.00
49779;BME280;36217;60.232;24.776;2022-12-01T11:00:25;103495.32;;;2.33;100.00
49779;BME280;36217;60.232;24.776;2022-12-01T11:02:52;103493.60;;;2.14;100.00
49779;BME280;36217;60.232;24.776;2022-12-01T11:05:22;103494.12;;;2.50;100.00
49779;BME280;36217;60.232;24.776;2022-12-01T11:07:51;103496.65;;;2.35;100.00
49779;BME280;36217;60.232;24.776;2022-12-01T11:10:20;103494.60;;;2.40;100.00
49779;BME280;36217;60.232;24.776;2022-12-01T11:12:53;103491.19;;;2.25;100.00
49779;BME280;36217;60.232;24.776;2022-12-01T11:15:23;103489.01;;;2.31;100.00
49779;BME280;36217;60.232;24.776;2022-12-01T11:17:57;103490.84;;;2.33;100.00
49779;BME280;36217;60.232;24.776;2022-12-01T11:20:27;103487.74;;;2.39;100.00
49779;BME280;36217;60.232;24.776;2022-12-01T11:23:21;103486.85;;;2.37;100.00
49779;BME280;36217;60.232;24.776;2022-12-01T11:25:56;103488.46;;;2.28;100.00
49779;BME280;36217;60.232;24.776;2022-12-01T11:28:25;103485.98;;;2.12;100.00
49779;BME280;36217;60.232;24.776;2022-12-01T11:30:54;103483.75;;;2.42;100.00
49779;BME280;36217;60.232;24.776;2022-12-01T11:33:22;103483.08;;;2.28;100.00
49779;BME280;36217;60.232;24.776;2022-12-01T11:35:49;103485.46;;;2.24;100.00
49779;BME280;36217;60.232;24.776;2022-12-01T11:38:20;103487.46;;;2.14;100.00
49779;BME280;36217;60.232;24.776;2022-12-01T11:40:50;103483.96;;;2.16;100.00
49779;BME280;36217;60.232;24.776;2022-12-01T11:43:23;103487.06;;;2.29;100.00
49779;BME280;36217;60.232;24.776;2022-12-01T11:45:52;103485.08;;;2.35;100.00
49779;BME280;36217;60.232;24.776;2022-12-01T11:48:23;103486.65;;;2.23;100.00
49779;BME280;36217;60.232;24.776;2022-12-01T11:51:09;103486.00;;;2.23;100.00
49779;BME280;36217;60.232;24.776;2022-12-01T11:53:38;103486.77;;;2.01;100.00
49779;BME280;36217;60.232;24.776;2022-12-01T11:56:15;103480.07;;;2.23;100.00
49779;BME280;36217;60.232;24.776;2022-12-01T11:58:45;103481.22;;;2.21;100.00
49779;BME280;36217;60.232;24.776;2022-12-01T12:01:24;103480.59;;;2.23;100.00
49779;BME280;36217;60.232;24.776;2022-12-01T12:04:00;103484.54;;;2.25;100.00
49779;BME280;36217;60.232;24.776;2022-12-01T12:06:36;103486.48;;;2.18;100.00
49779;BME280;36217;60.232;24.776;2022-12-01T12:09:22;103487.92;;;2.16;100.00
49779;BME280;36217;60.232;24.776;2022-12-01T12:11:56;103481.67;;;2.04;100.00
49779;BME280;36217;60.232;24.776;2022-12-01T12:14:37;103477.74;;;2.05;100.00
49779;BME280;36217;60.232;24.776;2022-12-01T12:17:15;103479.50;;;2.37;100.00
49779;BME280;36217;60.232;24.776;2022-12-01T12:19:58;103478.96;;;1.89;100.00
49779;BME280;36217;60.232;24.776;2022-12-01T12:22:44;103475.56;;;2.30;100.00
49779;BME280;36217;60.232;24.776;2022-12-01T12:25:22;103474.44;;;2.02;100.00
49779;BME280;36217;60.232;24.776;2022-12-01T12:28:03;103476.16;;;2.18;100.00
49779;BME280;36217;60.232;24.776;2022-12-01T12:30:37;103474.75;;;2.26;100.00
49779;BME280;36217;60.232;24.776;2022-12-01T12:33:19;103470.60;;;2.20;100.00
49779;BME280;36217;60.232;24.776;2022-12-01T12:35:51;103470.16;;;2.26;100.00
49779;BME280;36217;60.232;24.776;2022-12-01T12:38:29;103473.94;;;2.30;100.00
49779;BME280;36217;60.232;24.776;2022-12-01T12:41:12;103470.03;;;1.99;100.00
49779;BME280;36217;60.232;24.776;2022-12-01T12:43:47;103474.17;;;1.66;100.00
49779;BME280;36217;60.232;24.776;2022-12-01T12:46:20;103474.89;;;2.32;100.00
49779;BME280;36217;60.232;24.776;2022-12-01T12:49:01;103472.03;;;2.23;100.00
49779;BME280;36217;60.232;24.776;2022-12-01T12:51:35;103470.11;;;2.36;100.00
49779;BME280;36217;60.232;24.776;2022-12-01T12:54:14;103471.47;;;2.26;100.00